Time;durP1;ratioP1;P1;durP2;ratioP2;P2;SDS_P1;SDS_P2;PMS_P1;PMS_P2;Temp;Humidity;BMP_temperature;BMP_pressure;BME280_temperature;BME280_humidity;BME280_pressure;Samples;Min_cycle;Max_cycle;Signal;HPM_P1;HPM_P2
2022/09/09 00:03:23;;;;;;;4.35;1.25;;;20.70;95.50;;;;;;10090922;28;20379;-61
2022/09/09 00:08:24;;;;;;;1.13;0.80;;;20.70;95.60;;;;;;10088603;28;20041;-61
2022/09/09 00:13:40;;;;;;;2.33;0.65;;;20.60;95.60;;;;;;10073431;28;20033;-62
2022/09/09 00:18:52;;;;;;;3.13;1.15;;;20.40;95.70;;;;;;10089061;28;20128;-62
2022/09/09 00:23:51;;;;;;;1.17;0.60;;;20.30;96.10;;;;;;10093094;28;20072;-62
2022/09/09 00:28:52;;;;;;;4.20;0.90;;;20.20;96.30;;;;;;10090660;28;20041;-61
2022/09/09 00:33:43;;;;;;;1.92;0.60;;;19.90;96.60;;;;;;10093205;28;20025;-62
2022/09/09 00:38:41;;;;;;;2.67;0.68;;;19.60;97.00;;;;;;10088484;28;20049;-61
2022/09/09 00:43:40;;;;;;;3.13;0.50;;;19.00;97.50;;;;;;10074104;28;20090;-60
2022/09/09 00:48:45;;;;;;;3.33;0.50;;;18.20;98.60;;;;;;10081811;28;20260;-61
2022/09/09 00:54:14;;;;;;;1.13;0.57;;;18.20;98.80;;;;;;10091974;28;20025;-60
2022/09/09 00:59:14;;;;;;;1.33;0.50;;;18.20;98.80;;;;;;10090940;28;20037;-61
2022/09/09 01:04:15;;;;;;;3.75;0.57;;;18.30;98.90;;;;;;10083305;28;20375;-61
2022/09/09 01:09:32;;;;;;;1.80;0.73;;;18.20;99.20;;;;;;10069993;28;20072;-61
2022/09/09 01:14:35;;;;;;;2.58;0.65;;;18.40;99.40;;;;;;10083484;28;20021;-60
2022/09/09 01:19:43;;;;;;;0.95;0.75;;;18.50;99.60;;;;;;10086790;28;20103;-61
2022/09/09 01:24:51;;;;;;;1.95;0.60;;;18.60;99.60;;;;;;10091565;28;20033;-62
2022/09/09 01:29:42;;;;;;;0.95;0.63;;;18.70;99.80;;;;;;10081185;28;20429;-61
2022/09/09 01:34:40;;;;;;;2.40;0.60;;;19.00;99.80;;;;;;10091525;28;20079;-62
2022/09/09 01:39:32;;;;;;;3.90;1.05;;;19.10;99.90;;;;;;10099656;28;20032;-62
2022/09/09 01:44:25;;;;;;;0.90;0.70;;;19.10;99.90;;;;;;10098888;28;20029;-61
2022/09/09 01:49:17;;;;;;;2.05;0.70;;;19.10;99.90;;;;;;10098288;28;20025;-60
2022/09/09 01:54:07;;;;;;;2.42;0.80;;;19.10;99.90;;;;;;10098270;28;20033;-60
2022/09/09 01:59:32;;;;;;;2.75;0.73;;;19.10;99.90;;;;;;10078126;28;20086;-62
2022/09/09 02:04:42;;;;;;;1.92;0.77;;;19.20;99.90;;;;;;10090217;28;20075;-61
2022/09/09 02:09:33;;;;;;;1.67;0.77;;;19.20;99.90;;;;;;10094533;28;20527;-61
2022/09/09 02:14:30;;;;;;;1.55;0.55;;;19.10;99.90;;;;;;10097340;28;20079;-61
2022/09/09 02:19:32;;;;;;;0.85;0.60;;;19.10;99.90;;;;;;10094193;28;20049;-60
2022/09/09 02:24:23;;;;;;;1.60;0.80;;;18.90;99.90;;;;;;10082100;28;20045;-61
2022/09/09 02:29:22;;;;;;;1.83;1.00;;;18.90;99.90;;;;;;10097134;28;20040;-61
2022/09/09 02:34:15;;;;;;;2.15;0.52;;;19.00;99.90;;;;;;10095273;28;20123;-61
2022/09/09 02:39:08;;;;;;;1.63;0.68;;;19.00;99.90;;;;;;10094275;28;20051;-60
2022/09/09 02:43:58;;;;;;;1.27;0.68;;;19.00;99.90;;;;;;10092621;28;20024;-60
2022/09/09 02:48:58;;;;;;;0.77;0.30;;;18.90;99.90;;;;;;10087487;28;20040;-60
2022/09/09 02:54:04;;;;;;;2.28;0.80;;;18.90;99.90;;;;;;10096106;28;20025;-61
2022/09/09 02:58:55;;;;;;;0.73;0.57;;;18.90;99.90;;;;;;10094738;28;20044;-60
2022/09/09 03:03:46;;;;;;;0.95;0.60;;;18.80;99.90;;;;;;10093090;28;20029;-61
2022/09/09 03:08:37;;;;;;;1.02;0.47;;;18.70;99.90;;;;;;10092233;28;20111;-60
2022/09/09 03:13:27;;;;;;;1.35;0.60;;;18.80;99.90;;;;;;10095909;28;20157;-60
2022/09/09 03:18:18;;;;;;;2.20;0.65;;;18.60;99.90;;;;;;10093133;28;20040;-61
2022/09/09 03:23:09;;;;;;;1.20;0.40;;;18.60;99.90;;;;;;10084368;28;20096;-61
2022/09/09 03:28:00;;;;;;;2.55;1.33;;;18.70;99.90;;;;;;10095525;28;20518;-60
2022/09/09 03:32:51;;;;;;;2.60;1.15;;;18.50;99.90;;;;;;10095010;28;20048;-61
2022/09/09 03:37:41;;;;;;;0.82;0.50;;;18.50;99.90;;;;;;10092833;28;20056;-64
2022/09/09 03:42:32;;;;;;;2.13;0.50;;;18.30;99.90;;;;;;10094574;28;20467;-62
2022/09/09 03:47:23;;;;;;;0.85;0.45;;;18.30;99.90;;;;;;10095520;28;20064;-61
2022/09/09 03:52:14;;;;;;;2.47;0.40;;;18.30;99.90;;;;;;10093990;28;20071;-61
2022/09/09 03:57:06;;;;;;;1.15;0.60;;;18.30;99.90;;;;;;10093603;28;20409;-61
2022/09/09 04:01:58;;;;;;;1.02;0.35;;;18.20;99.90;;;;;;10090677;28;20043;-60
2022/09/09 04:06:50;;;;;;;1.73;1.02;;;18.20;99.90;;;;;;10092704;28;20021;-62
2022/09/09 04:11:41;;;;;;;1.83;0.75;;;18.00;99.90;;;;;;10092917;28;20037;-61
2022/09/09 04:16:34;;;;;;;2.55;0.77;;;18.10;99.90;;;;;;10089677;28;20061;-61
2022/09/09 04:21:24;;;;;;;3.65;0.90;;;18.20;99.90;;;;;;10092861;28;20082;-61
2022/09/09 04:26:15;;;;;;;0.82;0.43;;;18.30;99.90;;;;;;10093072;28;20013;-61
2022/09/09 04:31:08;;;;;;;2.35;0.73;;;18.10;99.90;;;;;;10092267;28;20549;-61
2022/09/09 04:35:59;;;;;;;1.65;0.90;;;18.10;99.90;;;;;;10088990;28;20124;-61
2022/09/09 04:40:51;;;;;;;3.78;0.95;;;18.00;99.90;;;;;;10091525;28;20037;-61
2022/09/09 04:45:43;;;;;;;3.78;1.15;;;18.00;99.90;;;;;;10073888;28;20550;-63
2022/09/09 04:50:33;;;;;;;1.85;0.90;;;17.90;99.90;;;;;;10073281;28;20582;-61
2022/09/09 04:55:24;;;;;;;2.75;1.73;;;17.90;99.90;;;;;;10073723;28;20044;-61
2022/09/09 05:00:16;;;;;;;1.63;1.30;;;17.90;99.90;;;;;;10070732;28;20045;-62
2022/09/09 05:05:08;;;;;;;2.55;0.75;;;17.90;99.90;;;;;;10087342;28;20037;-61
2022/09/09 05:09:58;;;;;;;1.00;0.60;;;18.00;99.90;;;;;;10091638;28;20051;-61
2022/09/09 05:14:50;;;;;;;2.08;0.65;;;18.00;99.90;;;;;;10080915;28;20017;-61
2022/09/09 05:19:40;;;;;;;2.17;1.35;;;18.00;99.90;;;;;;10095010;28;20032;-61
2022/09/09 05:24:33;;;;;;;1.60;0.70;;;17.90;99.90;;;;;;10100876;28;20016;-61
2022/09/09 05:29:23;;;;;;;3.72;1.85;;;18.00;99.90;;;;;;10099153;28;20025;-60
2022/09/09 05:34:14;;;;;;;4.72;1.65;;;18.10;99.90;;;;;;10099001;28;20458;-61
2022/09/09 05:39:04;;;;;;;6.28;1.65;;;18.10;99.90;;;;;;10096520;28;20079;-61
2022/09/09 05:43:55;;;;;;;1.70;1.08;;;18.10;99.90;;;;;;10098689;28;20021;-60
2022/09/09 05:48:47;;;;;;;3.72;0.93;;;18.30;99.90;;;;;;10098017;28;20025;-61
2022/09/09 05:53:38;;;;;;;3.13;1.35;;;18.30;99.90;;;;;;10098218;28;20393;-60
2022/09/09 05:58:33;;;;;;;3.22;0.95;;;18.30;99.90;;;;;;10097539;28;20033;-61
2022/09/09 06:03:24;;;;;;;1.43;1.07;;;18.50;99.90;;;;;;10093568;28;20451;-62
2022/09/09 06:08:14;;;;;;;3.65;1.20;;;18.60;99.90;;;;;;10091952;28;20283;-62
2022/09/09 06:13:05;;;;;;;2.78;0.95;;;18.60;99.90;;;;;;10091845;28;20095;-61
2022/09/09 06:17:55;;;;;;;3.85;1.17;;;18.60;99.90;;;;;;10091648;28;20128;-62
2022/09/09 06:22:46;;;;;;;5.35;1.17;;;18.50;99.90;;;;;;10096117;28;20538;-61
2022/09/09 06:27:37;;;;;;;2.40;1.00;;;18.50;99.90;;;;;;10076875;28;20036;-61
2022/09/09 06:32:28;;;;;;;2.92;1.23;;;18.60;99.90;;;;;;10094949;28;20027;-60
2022/09/09 06:37:18;;;;;;;2.13;1.15;;;18.70;99.90;;;;;;10089372;28;20057;-60
2022/09/09 06:42:09;;;;;;;3.20;1.13;;;18.50;99.90;;;;;;10091945;28;20013;-61
2022/09/09 06:47:00;;;;;;;2.92;1.33;;;18.60;99.90;;;;;;10093252;28;20392;-60
2022/09/09 06:51:51;;;;;;;3.45;1.30;;;18.50;99.90;;;;;;10093515;28;20032;-61
2022/09/09 06:56:43;;;;;;;2.15;1.80;;;18.50;99.90;;;;;;10092738;28;20426;-61
2022/09/09 07:01:36;;;;;;;3.03;1.20;;;18.60;99.90;;;;;;10091338;28;20095;-60
2022/09/09 07:06:29;;;;;;;2.60;1.42;;;18.70;99.90;;;;;;10093203;28;20552;-60
2022/09/09 07:11:21;;;;;;;1.80;1.30;;;19.00;99.90;;;;;;10090998;28;20093;-61
2022/09/09 07:16:15;;;;;;;2.00;1.05;;;19.20;99.90;;;;;;10090690;28;20025;-61
2022/09/09 07:21:08;;;;;;;3.70;1.98;;;19.50;99.90;;;;;;10092424;28;20139;-62
2022/09/09 07:25:59;;;;;;;2.03;1.38;;;19.80;99.90;;;;;;10095502;28;20040;-61
2022/09/09 07:30:57;;;;;;;3.40;1.80;;;20.10;99.90;;;;;;10090501;28;20029;-60
2022/09/09 07:35:49;;;;;;;2.33;1.13;;;20.20;99.90;;;;;;10093941;28;20098;-60
2022/09/09 07:40:39;;;;;;;1.48;1.15;;;20.30;99.90;;;;;;10093748;28;20029;-61
2022/09/09 07:45:33;;;;;;;2.78;1.30;;;20.10;99.90;;;;;;10076411;28;20048;-58
2022/09/09 07:50:24;;;;;;;2.33;1.05;;;20.10;99.90;;;;;;10094134;28;20033;-62
2022/09/09 07:55:14;;;;;;;2.72;1.00;;;20.20;99.90;;;;;;10093575;28;20013;-60
2022/09/09 08:00:06;;;;;;;6.28;3.05;;;20.20;99.90;;;;;;10093111;28;20041;-63
2022/09/09 08:04:56;;;;;;;2.60;1.23;;;20.30;99.90;;;;;;10093581;28;20506;-63
2022/09/09 08:09:47;;;;;;;3.65;1.23;;;20.40;99.90;;;;;;10068956;28;20102;-61
2022/09/09 08:14:38;;;;;;;2.28;0.70;;;20.80;99.90;;;;;;10082330;28;20252;-60
2022/09/09 08:19:33;;;;;;;2.15;1.10;;;20.90;99.90;;;;;;10089319;28;20123;-63
2022/09/09 08:24:24;;;;;;;3.83;0.90;;;20.80;99.90;;;;;;10092226;28;20037;-60
2022/09/09 08:29:15;;;;;;;3.72;0.88;;;20.90;99.80;;;;;;10091434;28;20033;-62
2022/09/09 08:34:07;;;;;;;4.55;0.98;;;20.70;99.80;;;;;;10091443;28;20025;-59
2022/09/09 08:38:58;;;;;;;1.60;0.90;;;20.50;99.90;;;;;;10121674;28;20580;-57
2022/09/09 08:43:58;;;;;;;3.00;0.80;;;20.60;99.90;;;;;;10125763;28;20022;-60
2022/09/09 08:49:37;;;;;;;4.78;1.25;;;20.80;99.80;;;;;;10132625;28;20300;-62
2022/09/09 08:54:33;;;;;;;4.15;0.80;;;20.70;99.90;;;;;;10093362;28;20119;-59
2022/09/09 08:59:24;;;;;;;3.60;0.95;;;20.40;99.90;;;;;;10130566;28;20041;-59
2022/09/09 09:04:35;;;;;;;1.67;0.77;;;20.20;99.90;;;;;;10127499;28;20028;-61
2022/09/09 09:09:35;;;;;;;4.10;1.88;;;20.40;99.90;;;;;;10130535;28;20012;-60
2022/09/09 09:14:26;;;;;;;1.75;0.98;;;20.50;99.90;;;;;;10127535;28;20036;-59
2022/09/09 09:19:17;;;;;;;5.82;1.05;;;20.50;99.90;;;;;;10125622;28;20051;-60
2022/09/09 09:24:16;;;;;;;1.08;0.73;;;20.70;99.90;;;;;;10130646;28;20020;-60
2022/09/09 09:29:13;;;;;;;2.22;1.23;;;20.80;99.70;;;;;;10119634;28;20028;-60
2022/09/09 09:34:04;;;;;;;4.53;0.95;;;20.80;99.60;;;;;;10131365;28;20443;-60
2022/09/09 09:39:00;;;;;;;3.38;0.90;;;20.60;99.70;;;;;;10092081;28;20057;-60
2022/09/09 09:43:54;;;;;;;4.15;1.45;;;20.70;99.40;;;;;;10090138;28;20052;-61
2022/09/09 09:48:46;;;;;;;1.87;0.73;;;20.70;99.30;;;;;;10089501;28;20509;-60
2022/09/09 09:53:38;;;;;;;2.92;0.85;;;20.90;99.00;;;;;;10089001;28;20029;-60
2022/09/09 09:58:38;;;;;;;1.17;0.70;;;21.00;98.90;;;;;;10089272;28;20554;-61
2022/09/09 10:03:31;;;;;;;1.77;0.60;;;21.40;98.60;;;;;;10077849;28;20025;-59
2022/09/09 10:08:24;;;;;;;2.38;0.90;;;21.40;98.50;;;;;;10095313;28;20028;-60
2022/09/09 10:13:25;;;;;;;2.78;0.77;;;21.60;98.20;;;;;;10095603;28;20032;-60
2022/09/09 10:18:26;;;;;;;2.42;1.00;;;21.70;97.70;;;;;;10093379;28;20674;-61
2022/09/09 10:23:36;;;;;;;2.17;0.80;;;21.80;97.20;;;;;;10075262;28;20055;-62
2022/09/09 10:29:08;;;;;;;1.95;0.68;;;22.00;96.90;;;;;;9995120;28;20025;-62
2022/09/09 10:34:31;;;;;;;2.78;1.10;;;21.90;96.80;;;;;;10099487;28;20037;-61
2022/09/09 10:39:42;;;;;;;1.25;0.65;;;22.20;96.10;;;;;;10131254;28;20337;-61
2022/09/09 10:44:59;;;;;;;1.45;0.60;;;22.50;95.70;;;;;;10135684;28;20036;-61
2022/09/09 10:50:08;;;;;;;3.90;0.85;;;22.50;95.40;;;;;;10122603;28;20103;-64
2022/09/09 10:55:19;;;;;;;4.78;1.42;;;22.70;95.30;;;;;;10137417;28;20079;-61
2022/09/09 11:00:17;;;;;;;4.90;1.00;;;23.00;94.70;;;;;;10132537;28;20072;-60
2022/09/09 11:05:19;;;;;;;2.10;0.70;;;23.10;94.70;;;;;;10122715;28;20145;-62
2022/09/09 11:10:25;;;;;;;3.33;1.00;;;23.20;94.50;;;;;;10114375;28;20024;-62
2022/09/09 11:15:25;;;;;;;1.05;0.50;;;23.40;93.90;;;;;;10120229;28;20016;-63
2022/09/09 11:20:16;;;;;;;5.32;1.08;;;23.60;94.00;;;;;;10122954;28;20044;-63
2022/09/09 11:25:18;;;;;;;3.67;1.40;;;23.50;93.70;;;;;;10135243;28;20508;-63
2022/09/09 11:30:26;;;;;;;4.10;1.33;;;23.50;93.60;;;;;;10126980;28;20024;-64
2022/09/09 11:35:29;;;;;;;5.20;0.90;;;23.60;93.20;;;;;;10122503;28;20033;-61
2022/09/09 11:40:22;;;;;;;2.30;1.40;;;23.40;93.50;;;;;;10085499;28;20355;-60
2022/09/09 11:45:33;;;;;;;1.67;0.80;;;23.60;93.20;;;;;;10083928;28;20041;-61
2022/09/09 11:50:23;;;;;;;1.90;0.77;;;23.60;92.90;;;;;;10083847;28;20056;-65
2022/09/09 11:55:27;;;;;;;6.32;2.38;;;23.60;93.00;;;;;;10088961;28;20045;-64
2022/09/09 12:00:35;;;;;;;2.77;1.03;;;23.60;92.90;;;;;;10088836;28;20491;-64
2022/09/09 12:05:40;;;;;;;2.95;1.00;;;23.40;92.60;;;;;;10094173;28;20036;-66
2022/09/09 12:10:33;;;;;;;1.92;0.73;;;23.50;92.70;;;;;;10071777;28;20914;-63
2022/09/09 12:15:29;;;;;;;1.10;0.60;;;23.50;92.30;;;;;;10092823;28;20021;-66
2022/09/09 12:20:32;;;;;;;1.17;0.60;;;23.80;92.00;;;;;;10089722;28;20045;-60
2022/09/09 12:25:35;;;;;;;1.67;0.85;;;24.30;91.60;;;;;;10088786;28;20021;-64
2022/09/09 12:30:50;;;;;;;1.30;0.82;;;24.10;91.50;;;;;;10092840;28;20017;-68
2022/09/09 12:35:43;;;;;;;1.75;0.70;;;24.00;91.50;;;;;;10088056;28;20040;-68
2022/09/09 12:40:35;;;;;;;2.88;1.00;;;24.10;91.40;;;;;;10084185;28;20045;-62
2022/09/09 12:45:32;;;;;;;2.30;0.43;;;24.50;91.20;;;;;;10086326;28;20021;-61
2022/09/09 12:50:25;;;;;;;3.17;0.75;;;24.80;90.70;;;;;;10086244;28;20582;-63
2022/09/09 12:55:29;;;;;;;3.83;0.77;;;24.90;90.50;;;;;;10081571;28;20634;-61
2022/09/09 13:00:23;;;;;;;2.70;0.68;;;25.20;90.20;;;;;;10081393;28;20035;-63
2022/09/09 13:05:24;;;;;;;5.00;0.90;;;24.80;90.30;;;;;;10089252;28;20017;-68
2022/09/09 13:10:24;;;;;;;2.30;0.60;;;24.20;90.30;;;;;;10086283;28;20415;-62
2022/09/09 13:15:20;;;;;;;1.27;0.40;;;24.20;89.70;;;;;;10088792;28;20063;-63
2022/09/09 13:20:17;;;;;;;3.08;0.75;;;24.10;89.30;;;;;;10089022;28;20040;-68
2022/09/09 13:25:11;;;;;;;0.70;0.30;;;24.00;89.40;;;;;;10090215;28;20399;-61
2022/09/09 13:30:22;;;;;;;2.08;0.40;;;25.70;88.70;;;;;;10089600;28;20096;-60
2022/09/09 13:35:24;;;;;;;2.33;0.40;;;27.60;84.00;;;;;;10095823;28;20041;-63
2022/09/09 13:40:19;;;;;;;2.72;0.70;;;28.90;81.70;;;;;;10095764;28;20025;-64
2022/09/09 13:45:22;;;;;;;1.83;0.60;;;30.30;80.90;;;;;;10098299;28;20020;-61
2022/09/09 13:50:19;;;;;;;1.77;0.90;;;29.90;76.40;;;;;;10097346;28;20043;-61
2022/09/09 13:55:10;;;;;;;2.65;0.95;;;29.50;74.20;;;;;;10098324;28;20547;-60
2022/09/09 14:00:01;;;;;;;0.63;0.50;;;28.60;74.40;;;;;;10096682;28;20033;-60
2022/09/09 14:04:54;;;;;;;0.85;0.30;;;26.30;75.00;;;;;;10098037;28;20028;-61
2022/09/09 14:09:49;;;;;;;1.27;0.45;;;24.70;75.30;;;;;;10094546;28;20391;-61
2022/09/09 14:14:41;;;;;;;1.80;0.50;;;23.80;75.60;;;;;;10090343;28;20364;-60
2022/09/09 14:19:32;;;;;;;3.42;0.98;;;22.70;75.90;;;;;;10093947;28;20134;-60
2022/09/09 14:24:23;;;;;;;3.70;1.20;;;20.60;84.30;;;;;;10097150;28;20495;-61
2022/09/09 14:29:14;;;;;;;1.75;0.45;;;19.20;91.00;;;;;;10096807;28;20375;-62
2022/09/09 14:34:05;;;;;;;1.70;0.70;;;17.90;94.60;;;;;;10091690;28;20025;-59
2022/09/09 14:38:57;;;;;;;5.28;1.13;;;18.10;95.30;;;;;;10092369;28;20057;-60
2022/09/09 14:43:48;;;;;;;0.75;0.40;;;18.60;95.40;;;;;;10095522;28;20027;-59
2022/09/09 14:48:42;;;;;;;0.82;0.47;;;19.30;95.50;;;;;;10096672;28;20399;-61
2022/09/09 14:53:32;;;;;;;0.90;0.45;;;20.80;94.90;;;;;;10095046;28;20082;-60
2022/09/09 14:58:23;;;;;;;1.15;0.43;;;20.70;95.60;;;;;;10084448;28;20041;-62
2022/09/09 15:03:14;;;;;;;1.98;0.77;;;22.50;95.50;;;;;;10093273;28;20387;-61
2022/09/09 15:08:04;;;;;;;1.83;0.80;;;23.20;94.70;;;;;;10094390;28;20079;-61
2022/09/09 15:12:56;;;;;;;1.05;0.47;;;22.30;95.80;;;;;;10095113;28;20677;-59
2022/09/09 15:17:47;;;;;;;2.83;0.60;;;25.10;94.20;;;;;;10071024;28;20058;-62
2022/09/09 15:22:37;;;;;;;3.10;0.40;;;23.30;95.10;;;;;;10095338;28;20478;-62
2022/09/09 15:27:30;;;;;;;5.35;0.80;;;22.30;96.10;;;;;;10094616;28;20071;-67
2022/09/09 15:32:20;;;;;;;2.85;0.70;;;21.70;96.40;;;;;;10092422;28;20576;-63
2022/09/09 15:37:14;;;;;;;1.27;0.70;;;21.50;96.50;;;;;;10092498;28;20319;-62
2022/09/09 15:42:04;;;;;;;4.75;0.70;;;21.50;96.60;;;;;;10091463;28;20036;-62
2022/09/09 15:46:55;;;;;;;1.48;1.17;;;21.40;96.70;;;;;;10091185;28;20734;-62
2022/09/09 15:51:50;;;;;;;1.70;0.80;;;21.30;96.70;;;;;;10090920;28;20017;-61
2022/09/09 15:56:41;;;;;;;;;;;21.20;97.00;;;;;;10085928;28;20017;-62
2022/09/09 16:01:32;;;;;;;1.58;0.75;;;21.20;97.10;;;;;;10087988;28;19904;-62
2022/09/09 16:06:24;;;;;;;2.08;1.20;;;21.20;97.00;;;;;;10093052;28;20025;-61
2022/09/09 16:11:21;;;;;;;1.52;0.70;;;21.10;97.10;;;;;;10087956;28;20024;-62
2022/09/09 16:16:14;;;;;;;0.98;0.57;;;21.20;97.10;;;;;;10087182;28;20124;-59
2022/09/09 16:21:06;;;;;;;1.25;0.90;;;21.30;97.00;;;;;;10091843;28;20294;-60
2022/09/09 16:25:56;;;;;;;0.90;0.57;;;21.50;96.70;;;;;;10092218;28;20052;-61
2022/09/09 16:30:47;;;;;;;1.30;1.13;;;21.70;96.60;;;;;;10088257;28;20463;-61
2022/09/09 16:35:38;;;;;;;3.28;0.90;;;21.80;96.50;;;;;;10091429;28;20152;-61
2022/09/09 16:40:30;;;;;;;2.58;0.55;;;22.10;96.20;;;;;;10087597;28;20039;-60
2022/09/09 16:45:21;;;;;;;3.42;1.08;;;23.20;95.20;;;;;;10084423;28;20257;-61
2022/09/09 16:50:12;;;;;;;2.92;1.40;;;24.10;94.50;;;;;;10091391;28;20032;-61
2022/09/09 16:55:03;;;;;;;1.13;0.80;;;26.60;92.80;;;;;;10073703;28;20039;-60
2022/09/09 16:59:55;;;;;;;1.77;0.88;;;29.50;90.90;;;;;;10081410;28;20043;-61
2022/09/09 17:04:47;;;;;;;1.65;1.00;;;31.10;87.80;;;;;;10091744;28;20041;-62
2022/09/09 17:09:37;;;;;;;3.58;0.90;;;29.90;88.30;;;;;;10096221;28;20431;-62
2022/09/09 17:14:30;;;;;;;0.93;0.60;;;27.20;90.10;;;;;;10098969;28;20032;-60
2022/09/09 17:19:21;;;;;;;1.63;0.70;;;24.50;91.90;;;;;;10085713;28;20403;-61
2022/09/09 17:24:12;;;;;;;1.88;0.82;;;23.50;92.40;;;;;;10099077;28;20036;-62
2022/09/09 17:29:02;;;;;;;1.42;1.00;;;23.10;92.60;;;;;;10096305;28;20021;-60
2022/09/09 17:33:54;;;;;;;5.50;1.20;;;22.80;92.60;;;;;;10098606;28;20025;-61
2022/09/09 17:38:45;;;;;;;3.05;0.90;;;22.30;92.80;;;;;;10096970;28;20056;-61
2022/09/09 17:43:36;;;;;;;2.20;0.80;;;22.00;92.90;;;;;;10098781;28;20025;-63
2022/09/09 17:48:30;;;;;;;1.85;0.50;;;21.70;93.00;;;;;;10098436;28;20024;-61
2022/09/09 17:53:20;;;;;;;2.38;1.00;;;21.40;93.10;;;;;;10098825;28;20487;-61
2022/09/09 17:58:12;;;;;;;2.33;1.27;;;21.20;93.20;;;;;;10080276;28;20036;-61
2022/09/09 18:03:03;;;;;;;1.30;1.05;;;21.10;93.30;;;;;;10096511;28;20028;-61
2022/09/09 18:07:54;;;;;;;2.38;0.88;;;21.00;93.40;;;;;;10095268;28;20384;-60
2022/09/09 18:12:44;;;;;;;2.65;0.80;;;20.80;93.40;;;;;;10097455;28;20024;-60
2022/09/09 18:17:35;;;;;;;2.80;0.70;;;20.70;93.40;;;;;;10093168;28;20548;-60
2022/09/09 18:22:26;;;;;;;1.17;0.60;;;20.70;93.40;;;;;;10097676;28;20134;-60
2022/09/09 18:27:17;;;;;;;1.38;0.80;;;20.70;93.40;;;;;;10096615;28;20542;-62
2022/09/09 18:32:08;;;;;;;2.47;1.40;;;20.60;93.40;;;;;;10093399;28;20029;-61
2022/09/09 18:36:59;;;;;;;3.75;0.68;;;20.60;93.40;;;;;;10094395;28;20510;-60
2022/09/09 18:41:51;;;;;;;0.93;0.57;;;20.60;93.30;;;;;;10096225;28;20040;-61
2022/09/09 18:46:43;;;;;;;2.40;0.50;;;20.70;93.20;;;;;;10096668;28;20029;-61
2022/09/09 18:51:35;;;;;;;2.15;0.73;;;20.60;93.30;;;;;;10085396;28;20039;-61
2022/09/09 18:56:31;;;;;;;4.47;1.83;;;20.80;93.30;;;;;;10087408;28;20033;-61
2022/09/09 19:01:22;;;;;;;3.05;1.35;;;20.80;93.30;;;;;;10091406;28;20056;-60
2022/09/09 19:06:25;;;;;;;2.15;1.50;;;20.80;93.40;;;;;;10077500;28;20032;-61
2022/09/09 19:11:19;;;;;;;3.05;1.30;;;20.80;93.40;;;;;;10091356;28;20025;-67
2022/09/09 19:16:12;;;;;;;3.10;1.13;;;20.80;93.40;;;;;;10087815;28;20539;-66
2022/09/09 19:21:11;;;;;;;2.20;0.95;;;20.80;93.40;;;;;;10077487;28;20539;-63
2022/09/09 19:26:02;;;;;;;2.92;1.10;;;20.80;93.60;;;;;;10090837;28;20083;-60
2022/09/09 19:30:55;;;;;;;1.83;0.90;;;20.70;93.60;;;;;;10094882;28;20033;-64
2022/09/09 19:35:55;;;;;;;2.92;1.20;;;20.60;93.90;;;;;;10093670;28;20036;-64
2022/09/09 19:40:46;;;;;;;6.47;1.35;;;20.50;94.00;;;;;;10093834;28;20048;-68
2022/09/09 19:45:36;;;;;;;2.65;1.13;;;20.50;94.10;;;;;;10094616;28;20028;-60
2022/09/09 19:50:27;;;;;;;3.15;1.35;;;20.40;94.20;;;;;;10090690;28;20063;-59
2022/09/09 19:55:18;;;;;;;2.35;0.70;;;20.20;94.30;;;;;;10083677;28;20097;-64
2022/09/09 20:00:10;;;;;;;1.02;0.75;;;20.20;94.60;;;;;;10084559;28;20217;-66
2022/09/09 20:05:00;;;;;;;2.80;0.88;;;20.20;94.80;;;;;;10090864;28;20017;-64
2022/09/09 20:09:52;;;;;;;1.65;0.90;;;20.20;94.80;;;;;;10088868;28;20037;-63
2022/09/09 20:14:43;;;;;;;1.50;1.13;;;20.10;95.00;;;;;;10084548;28;20028;-62
2022/09/09 20:19:33;;;;;;;3.90;1.98;;;20.10;95.10;;;;;;10090096;28;20045;-68
2022/09/09 20:24:25;;;;;;;3.25;1.00;;;20.10;95.40;;;;;;10094437;28;20461;-65
2022/09/09 20:29:18;;;;;;;4.95;0.80;;;20.20;95.40;;;;;;10093636;28;20036;-63
2022/09/09 20:34:14;;;;;;;3.45;1.33;;;20.10;95.50;;;;;;10091494;28;20071;-62
2022/09/09 20:39:13;;;;;;;2.50;0.75;;;20.00;95.70;;;;;;10116570;28;20055;-61
2022/09/09 20:44:08;;;;;;;2.03;1.00;;;19.90;96.00;;;;;;10131652;28;20343;-60
2022/09/09 20:48:59;;;;;;;2.10;1.13;;;20.00;96.10;;;;;;10131396;28;20053;-62
2022/09/09 20:54:08;;;;;;;6.88;1.15;;;20.00;96.20;;;;;;10133259;28;20119;-69
2022/09/09 20:59:00;;;;;;;5.95;1.05;;;20.00;96.30;;;;;;10137061;28;20393;-65
2022/09/09 21:03:52;;;;;;;1.83;0.93;;;19.80;96.60;;;;;;10132241;28;20337;-64
2022/09/09 21:08:44;;;;;;;1.25;0.70;;;19.70;96.70;;;;;;10128874;28;20028;-66
2022/09/09 21:13:37;;;;;;;2.13;0.70;;;19.50;97.20;;;;;;10129974;28;20032;-68
2022/09/09 21:18:28;;;;;;;7.57;1.00;;;19.20;97.70;;;;;;10129477;28;20037;-62
2022/09/09 21:23:19;;;;;;;2.05;0.80;;;18.80;97.70;;;;;;10127265;28;20463;-61
2022/09/09 21:28:10;;;;;;;2.60;1.60;;;18.80;98.10;;;;;;10132806;28;20036;-61
2022/09/09 21:33:02;;;;;;;1.65;0.70;;;18.50;98.50;;;;;;10132792;28;20029;-63
2022/09/09 21:37:53;;;;;;;3.70;0.75;;;18.30;99.00;;;;;;10098933;28;20052;-62
2022/09/09 21:42:45;;;;;;;1.70;1.23;;;18.00;99.80;;;;;;10075107;28;20094;-71
2022/09/09 21:47:35;;;;;;;1.52;1.02;;;18.00;99.90;;;;;;10077932;28;20133;-70
2022/09/09 21:52:27;;;;;;;1.30;1.10;;;18.20;99.90;;;;;;10072321;28;20582;-64
2022/09/09 21:57:18;;;;;;;2.20;1.23;;;18.40;99.90;;;;;;10098802;28;20048;-62
2022/09/09 22:02:09;;;;;;;1.30;0.75;;;18.40;99.90;;;;;;10098847;28;20041;-62
2022/09/09 22:07:00;;;;;;;2.92;0.70;;;18.50;99.90;;;;;;10088890;28;20127;-63
2022/09/09 22:11:51;;;;;;;1.05;0.80;;;18.60;99.90;;;;;;10092961;28;20031;-63
2022/09/09 22:16:42;;;;;;;1.23;0.80;;;18.70;99.90;;;;;;10086744;28;20040;-65
2022/09/09 22:21:32;;;;;;;1.65;0.85;;;18.80;99.90;;;;;;10088295;28;20559;-66
2022/09/09 22:26:25;;;;;;;2.05;1.30;;;18.70;99.90;;;;;;10091843;28;20021;-66
2022/09/09 22:31:16;;;;;;;2.85;0.80;;;18.60;99.90;;;;;;10090858;28;20060;-59
2022/09/09 22:36:07;;;;;;;2.88;0.77;;;18.70;99.90;;;;;;10087334;28;20523;-61
2022/09/09 22:40:58;;;;;;;0.70;0.55;;;18.60;99.90;;;;;;10083835;28;20109;-62
2022/09/09 22:45:49;;;;;;;2.58;0.70;;;18.60;99.90;;;;;;10083619;28;20419;-60
2022/09/09 22:50:41;;;;;;;2.00;0.85;;;18.60;99.90;;;;;;10089322;28;20029;-67
2022/09/09 22:55:32;;;;;;;2.33;0.82;;;18.70;99.90;;;;;;10097789;28;20032;-64
2022/09/09 23:00:24;;;;;;;1.58;0.73;;;18.70;99.90;;;;;;10093267;28;20048;-67
2022/09/09 23:05:15;;;;;;;3.75;0.70;;;18.60;99.90;;;;;;10084724;28;20036;-65
2022/09/09 23:10:07;;;;;;;1.23;0.60;;;18.50;99.90;;;;;;10091787;28;20506;-62
2022/09/09 23:14:57;;;;;;;1.67;1.15;;;18.40;99.90;;;;;;10090380;28;20028;-65
2022/09/09 23:19:53;;;;;;;1.20;0.63;;;18.40;99.90;;;;;;10074040;28;20063;-63
2022/09/09 23:24:43;;;;;;;1.27;0.50;;;18.30;99.90;;;;;;10088111;28;20025;-63
2022/09/09 23:29:34;;;;;;;2.58;1.00;;;18.50;99.90;;;;;;10070799;28;20040;-62
2022/09/09 23:34:25;;;;;;;1.35;0.77;;;18.40;99.90;;;;;;10090428;28;20244;-65
2022/09/09 23:39:16;;;;;;;1.88;0.90;;;18.40;99.90;;;;;;10089905;28;20049;-68
2022/09/09 23:44:07;;;;;;;3.38;0.95;;;18.40;99.90;;;;;;10094210;28;20390;-66
2022/09/09 23:48:58;;;;;;;1.60;1.02;;;18.40;99.90;;;;;;10093192;28;20116;-65
2022/09/09 23:53:51;;;;;;;2.58;0.63;;;18.00;99.90;;;;;;10093262;28;20495;-64
2022/09/09 23:58:42;;;;;;;1.92;0.75;;;17.60;99.90;;;;;;10081776;28;20063;-67
